createdAt,value
2018-04-22T00:00:45.426Z,0.00
2018-04-22T00:01:45.396Z,0.00
2018-04-22T00:02:45.365Z,0.00
2018-04-22T00:03:45.339Z,0.00
2018-04-22T00:04:45.319Z,0.00
2018-04-22T00:05:45.288Z,0.00
2018-04-22T00:06:45.270Z,0.00
2018-04-22T00:07:45.252Z,0.00
2018-04-22T00:08:45.217Z,0.00
2018-04-22T00:09:45.190Z,0.00
2018-04-22T00:10:45.172Z,0.00
2018-04-22T00:11:45.146Z,0.00
2018-04-22T00:12:45.122Z,0.00
2018-04-22T00:13:45.100Z,0.00
2018-04-22T00:14:45.074Z,0.00
2018-04-22T00:15:45.079Z,0.00
2018-04-22T00:16:45.026Z,0.00
2018-04-22T00:17:44.997Z,0.00
2018-04-22T00:18:44.971Z,0.00
2018-04-22T00:19:44.982Z,0.00
2018-04-22T00:20:44.921Z,0.00
2018-04-22T00:21:44.901Z,0.00
2018-04-22T00:22:44.870Z,0.00
2018-04-22T00:23:44.935Z,0.00
2018-04-22T00:24:44.849Z,0.00
2018-04-22T00:25:44.862Z,0.00
2018-04-22T00:26:44.838Z,0.00
2018-04-22T00:27:44.928Z,0.00
2018-04-22T00:28:44.777Z,0.00
2018-04-22T00:29:46.299Z,0.00
2018-04-22T00:30:44.774Z,0.00
2018-04-22T00:31:44.744Z,0.00
2018-04-22T00:32:44.679Z,0.00
2018-04-22T00:33:44.655Z,0.00
2018-04-22T00:34:44.621Z,0.00
2018-04-22T00:35:44.626Z,0.00
2018-04-22T00:36:44.538Z,0.00
2018-04-22T00:37:44.564Z,0.00
2018-04-22T00:38:44.539Z,0.00
2018-04-22T00:39:44.511Z,0.00
2018-04-22T00:40:44.476Z,0.00
2018-04-22T00:41:44.455Z,0.00
2018-04-22T00:42:44.437Z,0.00
2018-04-22T00:43:44.418Z,0.00
2018-04-22T00:44:44.396Z,0.00
2018-04-22T00:45:44.358Z,0.00
2018-04-22T00:46:44.340Z,0.00
2018-04-22T00:47:44.304Z,0.00
2018-04-22T00:48:44.292Z,0.00
2018-04-22T00:49:44.237Z,0.00
2018-04-22T00:50:44.236Z,0.00
2018-04-22T00:51:44.219Z,0.00
2018-04-22T00:52:44.238Z,0.00
2018-04-22T00:53:44.192Z,0.00
2018-04-22T00:54:44.171Z,0.00
2018-04-22T00:55:44.137Z,0.00
2018-04-22T00:56:44.099Z,0.00
2018-04-22T00:57:44.071Z,0.00
2018-04-22T00:58:44.032Z,0.00
2018-04-22T00:59:44.020Z,0.00
2018-04-22T01:00:43.992Z,0.00
2018-04-22T01:01:43.976Z,0.00
2018-04-22T01:02:43.950Z,0.00
2018-04-22T01:03:43.929Z,0.00
2018-04-22T01:04:43.839Z,0.00
2018-04-22T01:05:43.865Z,0.00
2018-04-22T01:06:43.851Z,0.00
2018-04-22T01:07:43.872Z,0.00
2018-04-22T01:08:43.789Z,0.00
2018-04-22T01:09:43.765Z,0.00
2018-04-22T01:10:43.740Z,0.00
2018-04-22T01:11:43.724Z,0.00
2018-04-22T01:12:43.714Z,0.00
2018-04-22T01:13:43.677Z,0.00
2018-04-22T01:14:43.640Z,0.00
2018-04-22T01:15:43.612Z,0.00
2018-04-22T01:16:43.581Z,0.00
2018-04-22T01:17:43.562Z,0.00
2018-04-22T01:18:43.538Z,0.00
2018-04-22T01:19:43.517Z,0.00
2018-04-22T01:20:43.497Z,0.00
2018-04-22T01:21:43.508Z,0.00
2018-04-22T01:22:43.445Z,0.00
2018-04-22T01:23:43.426Z,0.00
2018-04-22T01:24:43.457Z,0.00
2018-04-22T01:25:43.375Z,0.00
2018-04-22T01:26:43.352Z,0.00
2018-04-22T01:27:43.336Z,0.00
2018-04-22T01:28:43.294Z,0.00
2018-04-22T01:29:43.282Z,0.00
2018-04-22T01:30:43.255Z,0.00
2018-04-22T01:31:43.218Z,0.00
2018-04-22T01:32:43.192Z,0.00
2018-04-22T01:33:43.166Z,0.00
2018-04-22T01:34:43.168Z,0.00
2018-04-22T01:35:43.129Z,0.00
2018-04-22T01:36:43.045Z,0.00
2018-04-22T01:37:43.101Z,0.00
2018-04-22T01:38:43.057Z,0.00
2018-04-22T01:39:43.030Z,0.00
2018-04-22T01:40:43.013Z,0.00
2018-04-22T01:41:42.984Z,0.00
2018-04-22T01:42:42.959Z,0.00
2018-04-22T01:43:42.934Z,0.00
2018-04-22T01:44:42.916Z,0.00
2018-04-22T01:45:42.884Z,0.00
2018-04-22T01:46:42.851Z,0.00
2018-04-22T01:47:42.848Z,0.00
2018-04-22T01:48:42.793Z,0.00
2018-04-22T01:49:42.797Z,0.00
2018-04-22T01:50:42.746Z,0.00
2018-04-22T01:51:42.712Z,0.00
2018-04-22T01:52:42.678Z,0.00
2018-04-22T01:53:42.676Z,0.00
2018-04-22T01:54:42.681Z,0.00
2018-04-22T01:55:42.607Z,0.00
2018-04-22T01:56:42.603Z,0.00
2018-04-22T01:57:42.570Z,0.00
2018-04-22T01:58:42.505Z,0.00
2018-04-22T01:59:42.478Z,0.00
2018-04-22T02:00:42.451Z,0.00
2018-04-22T02:01:42.437Z,0.00
2018-04-22T02:02:42.395Z,0.00
2018-04-22T02:03:42.416Z,0.00
2018-04-22T02:04:42.344Z,0.00
2018-04-22T02:05:42.320Z,0.00
2018-04-22T02:06:42.290Z,0.00
2018-04-22T02:07:42.266Z,0.00
2018-04-22T02:08:42.241Z,0.00
2018-04-22T02:09:42.213Z,0.00
2018-04-22T02:10:42.196Z,0.00
2018-04-22T02:11:42.170Z,0.00
2018-04-22T02:12:42.146Z,0.00
2018-04-22T02:13:42.126Z,0.00
2018-04-22T02:14:42.096Z,0.00
2018-04-22T02:15:42.081Z,0.00
2018-04-22T02:16:42.042Z,0.00
2018-04-22T02:17:42.044Z,0.00
2018-04-22T02:18:41.992Z,0.00
2018-04-22T02:19:41.969Z,0.00
2018-04-22T02:20:41.956Z,0.00
2018-04-22T02:21:41.932Z,0.00
2018-04-22T02:22:41.893Z,0.00
2018-04-22T02:23:41.873Z,0.00
2018-04-22T02:24:41.839Z,0.00
2018-04-22T02:25:41.817Z,0.00
2018-04-22T02:26:41.817Z,0.00
2018-04-22T02:27:41.775Z,0.00
2018-04-22T02:28:43.287Z,0.00
2018-04-22T02:29:41.725Z,0.00
2018-04-22T02:30:41.708Z,0.00
2018-04-22T02:31:41.668Z,0.00
2018-04-22T02:32:41.647Z,0.00
2018-04-22T02:33:41.617Z,0.00
2018-04-22T02:34:41.591Z,0.00
2018-04-22T02:35:41.565Z,0.00
2018-04-22T02:36:41.535Z,0.00
2018-04-22T02:37:41.514Z,0.00
2018-04-22T02:38:41.487Z,0.00
2018-04-22T02:39:41.465Z,0.00
2018-04-22T02:40:41.443Z,0.00
2018-04-22T02:41:41.414Z,0.00
2018-04-22T02:42:41.394Z,0.00
2018-04-22T02:43:41.368Z,0.00
2018-04-22T02:44:41.339Z,0.00
2018-04-22T02:45:41.314Z,0.00
2018-04-22T02:46:41.287Z,0.00
2018-04-22T02:47:41.274Z,0.00
2018-04-22T02:48:41.240Z,0.00
2018-04-22T02:49:41.221Z,0.00
2018-04-22T02:50:41.192Z,0.00
2018-04-22T02:51:41.158Z,0.00
2018-04-22T02:52:41.139Z,0.00
2018-04-22T02:53:41.116Z,0.00
2018-04-22T02:54:41.125Z,0.00
2018-04-22T02:55:41.069Z,0.00
2018-04-22T02:56:41.044Z,0.00
2018-04-22T02:57:41.034Z,0.00
2018-04-22T02:58:40.981Z,0.00
2018-04-22T02:59:40.963Z,0.00
2018-04-22T03:00:40.950Z,0.00
2018-04-22T03:01:40.920Z,0.00
2018-04-22T03:02:40.881Z,0.00
2018-04-22T03:03:40.855Z,0.00
2018-04-22T03:04:40.834Z,0.00
2018-04-22T03:05:40.801Z,0.00
2018-04-22T03:06:40.797Z,0.00
2018-04-22T03:07:40.757Z,0.00
2018-04-22T03:08:40.734Z,0.00
2018-04-22T03:09:40.710Z,0.00
2018-04-22T03:10:40.688Z,0.00
2018-04-22T03:11:40.659Z,0.00
2018-04-22T03:12:40.640Z,0.00
2018-04-22T03:13:40.647Z,0.00
2018-04-22T03:14:40.574Z,0.00
2018-04-22T03:15:40.554Z,0.00
2018-04-22T03:16:40.566Z,0.00
2018-04-22T03:17:40.534Z,0.00
2018-04-22T03:18:40.471Z,0.00
2018-04-22T03:19:40.467Z,0.00
2018-04-22T03:20:40.424Z,0.00
2018-04-22T03:21:40.421Z,0.00
2018-04-22T03:22:40.375Z,0.00
2018-04-22T03:23:40.351Z,0.00
2018-04-22T03:24:40.336Z,0.00
2018-04-22T03:25:40.303Z,0.00
2018-04-22T03:26:40.284Z,0.00
2018-04-22T03:27:40.259Z,0.00
2018-04-22T03:28:40.240Z,0.00
2018-04-22T03:29:40.205Z,0.00
2018-04-22T03:30:40.173Z,0.00
2018-04-22T03:31:40.152Z,0.00
2018-04-22T03:32:40.118Z,0.00
2018-04-22T03:33:40.104Z,0.00
2018-04-22T03:34:40.070Z,0.00
2018-04-22T03:35:40.039Z,0.00
2018-04-22T03:36:40.023Z,0.00
2018-04-22T03:37:39.988Z,0.00
2018-04-22T03:38:39.995Z,0.00
2018-04-22T03:39:39.943Z,0.00
2018-04-22T03:40:39.941Z,0.00
2018-04-22T03:41:39.894Z,0.00
2018-04-22T03:42:39.891Z,0.00
2018-04-22T03:43:39.850Z,0.00
2018-04-22T03:44:39.821Z,0.00
2018-04-22T03:45:39.795Z,0.00
2018-04-22T03:46:39.781Z,0.00
2018-04-22T03:47:39.740Z,0.00
2018-04-22T03:48:39.713Z,0.00
2018-04-22T03:49:39.708Z,0.00
2018-04-22T03:50:39.662Z,0.00
2018-04-22T03:51:39.635Z,0.00
2018-04-22T03:52:39.610Z,0.00
2018-04-22T03:53:39.585Z,0.00
2018-04-22T03:54:39.564Z,0.00
2018-04-22T03:55:39.623Z,0.00
2018-04-22T03:56:39.508Z,0.00
2018-04-22T03:57:39.486Z,0.00
2018-04-22T03:58:39.450Z,0.00
2018-04-22T03:59:39.427Z,0.00
2018-04-22T04:00:39.400Z,0.00
2018-04-22T04:01:39.375Z,0.00
2018-04-22T04:02:39.361Z,0.00
2018-04-22T04:03:39.326Z,0.00
2018-04-22T04:04:39.302Z,0.00
2018-04-22T04:05:39.293Z,0.00
2018-04-22T04:06:39.261Z,0.00
2018-04-22T04:07:39.225Z,0.00
2018-04-22T04:08:39.200Z,0.00
2018-04-22T04:09:39.182Z,0.00
2018-04-22T04:10:39.149Z,0.00
2018-04-22T04:11:39.121Z,0.00
2018-04-22T04:12:39.095Z,0.00
2018-04-22T04:13:39.067Z,0.00
2018-04-22T04:14:39.072Z,0.00
2018-04-22T04:15:39.025Z,0.00
2018-04-22T04:16:38.991Z,5.63
2018-04-22T04:17:39.003Z,5.63
2018-04-22T04:18:38.941Z,5.63
2018-04-22T04:19:38.919Z,5.63
2018-04-22T04:20:38.892Z,5.63
2018-04-22T04:21:38.873Z,5.63
2018-04-22T04:22:38.845Z,11.25
2018-04-22T04:23:38.827Z,11.25
2018-04-22T04:24:38.789Z,11.25
2018-04-22T04:25:38.764Z,11.25
2018-04-22T04:26:38.737Z,11.25
2018-04-22T04:27:38.708Z,16.88
2018-04-22T04:28:38.686Z,16.88
2018-04-22T04:29:38.669Z,16.88
2018-04-22T04:30:38.674Z,16.88
2018-04-22T04:31:38.618Z,22.50
2018-04-22T04:32:38.578Z,22.50
2018-04-22T04:33:38.566Z,22.50
2018-04-22T04:34:38.542Z,22.50
2018-04-22T04:35:38.509Z,28.13
2018-04-22T04:36:38.487Z,28.13
2018-04-22T04:37:38.460Z,28.13
2018-04-22T04:38:38.431Z,33.75
2018-04-22T04:39:38.406Z,33.75
2018-04-22T04:40:38.388Z,33.75
2018-04-22T04:41:38.351Z,39.38
2018-04-22T04:42:38.325Z,39.38
2018-04-22T04:43:38.300Z,39.38
2018-04-22T04:44:38.274Z,45.00
2018-04-22T04:45:38.245Z,45.00
2018-04-22T04:46:38.224Z,45.00
2018-04-22T04:47:38.196Z,50.63
2018-04-22T04:48:38.171Z,50.63
2018-04-22T04:49:38.138Z,56.25
2018-04-22T04:50:38.120Z,56.25
2018-04-22T04:51:38.098Z,56.25
2018-04-22T04:52:38.067Z,61.88
2018-04-22T04:53:38.047Z,61.88
2018-04-22T04:54:38.014Z,67.50
2018-04-22T04:55:38.005Z,67.50
2018-04-22T04:56:37.967Z,73.13
2018-04-22T04:57:37.984Z,73.13
2018-04-22T04:58:37.913Z,78.75
2018-04-22T04:59:37.882Z,78.75
2018-04-22T05:00:37.871Z,84.38
2018-04-22T05:01:37.829Z,84.38
2018-04-22T05:02:37.812Z,90.00
2018-04-22T05:03:37.824Z,90.00
2018-04-22T05:04:37.760Z,95.63
2018-04-22T05:05:37.735Z,95.63
2018-04-22T05:06:37.722Z,95.63
2018-04-22T05:07:37.676Z,101.25
2018-04-22T05:08:37.652Z,101.25
2018-04-22T05:09:37.623Z,101.25
2018-04-22T05:10:37.614Z,106.88
2018-04-22T05:11:37.579Z,106.88
2018-04-22T05:12:37.566Z,106.88
2018-04-22T05:13:37.539Z,112.50
2018-04-22T05:14:37.507Z,112.50
2018-04-22T05:15:37.479Z,112.50
2018-04-22T05:16:37.452Z,118.13
2018-04-22T05:17:37.424Z,118.13
2018-04-22T05:18:37.396Z,118.13
2018-04-22T05:19:37.370Z,118.13
2018-04-22T05:20:37.352Z,123.75
2018-04-22T05:21:37.327Z,123.75
2018-04-22T05:22:37.287Z,123.75
2018-04-22T05:23:37.272Z,129.38
2018-04-22T05:24:37.247Z,129.38
2018-04-22T05:25:37.219Z,129.38
2018-04-22T05:26:37.196Z,135.00
2018-04-22T05:27:37.170Z,129.38
2018-04-22T05:28:37.136Z,135.00
2018-04-22T05:29:37.112Z,135.00
2018-04-22T05:30:37.153Z,140.63
2018-04-22T05:31:37.089Z,146.25
2018-04-22T05:32:37.040Z,146.25
2018-04-22T05:33:37.015Z,146.25
2018-04-22T05:34:36.986Z,151.88
2018-04-22T05:35:36.965Z,151.88
2018-04-22T05:36:36.939Z,151.88
2018-04-22T05:37:36.917Z,151.88
2018-04-22T05:38:36.886Z,151.88
2018-04-22T05:39:36.860Z,157.50
2018-04-22T05:40:36.833Z,157.50
2018-04-22T05:41:36.838Z,157.50
2018-04-22T05:42:36.826Z,151.88
2018-04-22T05:43:36.780Z,157.50
2018-04-22T05:44:36.729Z,163.13
2018-04-22T05:45:36.704Z,163.13
2018-04-22T05:46:36.684Z,163.13
2018-04-22T05:47:36.668Z,168.75
2018-04-22T05:48:36.634Z,174.38
2018-04-22T05:49:36.614Z,174.38
2018-04-22T05:50:36.584Z,174.38
2018-04-22T05:51:36.552Z,180.00
2018-04-22T05:52:36.557Z,180.00
2018-04-22T05:53:36.501Z,185.63
2018-04-22T05:54:36.470Z,191.25
2018-04-22T05:55:36.457Z,191.25
2018-04-22T05:56:36.418Z,191.25
2018-04-22T05:57:36.395Z,196.88
2018-04-22T05:58:36.375Z,202.50
2018-04-22T05:59:36.348Z,202.50
2018-04-22T06:00:36.320Z,208.13
2018-04-22T06:01:36.303Z,208.13
2018-04-22T06:02:36.277Z,213.75
2018-04-22T06:03:36.245Z,219.38
2018-04-22T06:04:36.222Z,219.38
2018-04-22T06:05:36.197Z,225.00
2018-04-22T06:06:36.169Z,230.63
2018-04-22T06:07:36.141Z,230.63
2018-04-22T06:08:36.171Z,236.25
2018-04-22T06:09:36.089Z,236.25
2018-04-22T06:10:36.069Z,241.88
2018-04-22T06:11:36.047Z,241.88
2018-04-22T06:12:36.016Z,241.88
2018-04-22T06:13:36.009Z,247.50
2018-04-22T06:14:35.973Z,247.50
2018-04-22T06:15:35.947Z,253.13
2018-04-22T06:16:35.922Z,253.13
2018-04-22T06:17:35.901Z,258.75
2018-04-22T06:18:35.868Z,258.75
2018-04-22T06:19:35.842Z,258.75
2018-04-22T06:20:35.836Z,264.38
2018-04-22T06:21:35.791Z,264.38
2018-04-22T06:22:35.764Z,264.38
2018-04-22T06:23:35.779Z,270.00
2018-04-22T06:24:35.716Z,270.00
2018-04-22T06:25:35.693Z,275.63
2018-04-22T06:26:35.740Z,275.63
2018-04-22T06:27:35.642Z,275.63
2018-04-22T06:28:35.621Z,275.63
2018-04-22T06:29:35.602Z,281.25
2018-04-22T06:30:35.573Z,286.88
2018-04-22T06:31:35.545Z,281.25
2018-04-22T06:32:35.517Z,286.88
2018-04-22T06:33:35.500Z,286.88
2018-04-22T06:34:35.466Z,286.88
2018-04-22T06:35:35.440Z,286.88
2018-04-22T06:36:35.416Z,286.88
2018-04-22T06:37:35.391Z,286.88
2018-04-22T06:38:35.366Z,286.88
2018-04-22T06:39:35.363Z,286.88
2018-04-22T06:40:35.369Z,286.88
2018-04-22T06:41:35.292Z,292.50
2018-04-22T06:42:35.273Z,292.50
2018-04-22T06:43:35.251Z,292.50
2018-04-22T06:44:35.224Z,292.50
2018-04-22T06:45:35.204Z,298.13
2018-04-22T06:46:35.174Z,298.13
2018-04-22T06:47:35.150Z,298.13
2018-04-22T06:48:35.121Z,298.13
2018-04-22T06:49:35.144Z,303.75
2018-04-22T06:50:35.073Z,303.75
2018-04-22T06:51:35.046Z,303.75
2018-04-22T06:52:35.027Z,303.75
2018-04-22T06:53:34.997Z,298.13
2018-04-22T06:54:34.973Z,292.50
2018-04-22T06:55:34.951Z,292.50
2018-04-22T06:56:34.921Z,286.88
2018-04-22T06:57:34.898Z,286.88
2018-04-22T06:58:34.880Z,292.50
2018-04-22T06:59:34.860Z,286.88
2018-04-22T07:00:34.836Z,286.88
2018-04-22T07:01:34.806Z,281.25
2018-04-22T07:02:34.784Z,281.25
2018-04-22T07:03:34.772Z,275.63
2018-04-22T07:04:34.732Z,275.63
2018-04-22T07:05:34.707Z,281.25
2018-04-22T07:06:34.684Z,286.88
2018-04-22T07:07:34.656Z,286.88
2018-04-22T07:08:34.637Z,292.50
2018-04-22T07:09:34.615Z,292.50
2018-04-22T07:10:34.597Z,286.88
2018-04-22T07:11:34.562Z,281.25
2018-04-22T07:12:34.546Z,281.25
2018-04-22T07:13:34.518Z,286.88
2018-04-22T07:14:34.487Z,286.88
2018-04-22T07:15:34.485Z,292.50
2018-04-22T07:16:34.444Z,298.13
2018-04-22T07:17:34.435Z,303.75
2018-04-22T07:18:34.390Z,303.75
2018-04-22T07:19:34.372Z,303.75
2018-04-22T07:20:34.345Z,303.75
2018-04-22T07:21:34.322Z,298.13
2018-04-22T07:22:34.303Z,303.75
2018-04-22T07:23:34.276Z,309.38
2018-04-22T07:24:34.260Z,315.00
2018-04-22T07:25:34.230Z,315.00
2018-04-22T07:26:34.205Z,309.38
2018-04-22T07:27:34.187Z,315.00
2018-04-22T07:28:34.190Z,320.63
2018-04-22T07:29:34.138Z,331.88
2018-04-22T07:30:34.109Z,326.25
2018-04-22T07:31:34.095Z,320.63
2018-04-22T07:32:34.106Z,320.63
2018-04-22T07:33:34.038Z,320.63
2018-04-22T07:34:34.011Z,315.00
2018-04-22T07:35:34.767Z,315.00
2018-04-22T07:36:33.966Z,303.75
2018-04-22T07:37:33.943Z,298.13
2018-04-22T07:38:34.855Z,298.13
2018-04-22T07:39:33.902Z,309.38
2018-04-22T07:40:33.886Z,315.00
2018-04-22T07:41:33.894Z,315.00
2018-04-22T07:42:33.882Z,315.00
2018-04-22T07:43:33.856Z,320.63
2018-04-22T07:44:36.335Z,320.63
2018-04-22T07:45:34.114Z,320.63
2018-04-22T07:46:33.729Z,315.00
2018-04-22T07:47:50.571Z,315.00
2018-04-22T07:48:33.686Z,309.38
2018-04-22T07:49:33.673Z,309.38
2018-04-22T07:50:33.693Z,315.00
2018-04-22T07:51:33.622Z,320.63
2018-04-22T07:52:33.598Z,326.25
2018-04-22T07:53:33.576Z,326.25
2018-04-22T07:54:33.555Z,320.63
2018-04-22T07:55:33.653Z,326.25
2018-04-22T07:56:33.510Z,326.25
2018-04-22T07:57:33.547Z,320.63
2018-04-22T07:58:33.454Z,320.63
2018-04-22T07:59:33.459Z,320.63
2018-04-22T08:00:33.410Z,326.25
2018-04-22T08:01:33.499Z,331.88
2018-04-22T08:02:33.360Z,320.63
2018-04-22T08:03:33.382Z,320.63
2018-04-22T08:04:33.318Z,320.63
2018-04-22T08:05:33.345Z,320.63
2018-04-22T08:06:33.272Z,320.63
2018-04-22T08:07:33.246Z,315.00
2018-04-22T08:08:33.244Z,326.25
2018-04-22T08:09:33.199Z,326.25
2018-04-22T08:10:33.190Z,331.88
2018-04-22T08:11:33.162Z,337.50
2018-04-22T08:12:33.141Z,337.50
2018-04-22T08:13:33.120Z,337.50
2018-04-22T08:14:33.115Z,331.88
2018-04-22T08:15:33.069Z,331.88
2018-04-22T08:16:33.048Z,343.13
2018-04-22T08:17:33.020Z,343.13
2018-04-22T08:18:33.085Z,343.13
2018-04-22T08:19:32.977Z,337.50
2018-04-22T08:20:32.961Z,343.13
2018-04-22T08:21:32.952Z,348.75
2018-04-22T08:22:32.942Z,348.75
2018-04-22T08:23:32.897Z,354.38
2018-04-22T08:24:32.872Z,354.38
2018-04-22T08:25:32.848Z,348.75
2018-04-22T08:26:32.821Z,348.75
2018-04-22T08:27:32.794Z,354.38
2018-04-22T08:28:32.785Z,354.38
2018-04-22T08:29:32.746Z,360.00
2018-04-22T08:30:32.743Z,371.25
2018-04-22T08:31:32.711Z,371.25
2018-04-22T08:32:32.682Z,371.25
2018-04-22T08:33:32.669Z,371.25
2018-04-22T08:34:32.640Z,376.88
2018-04-22T08:35:32.616Z,376.88
2018-04-22T08:36:32.609Z,382.50
2018-04-22T08:37:32.575Z,388.13
2018-04-22T08:38:32.562Z,393.75
2018-04-22T08:39:32.533Z,393.75
2018-04-22T08:40:32.513Z,399.38
2018-04-22T08:41:32.485Z,399.38
2018-04-22T08:42:32.465Z,399.38
2018-04-22T08:43:32.440Z,393.75
2018-04-22T08:44:32.420Z,393.75
2018-04-22T08:45:32.403Z,393.75
2018-04-22T08:46:32.372Z,393.75
2018-04-22T08:47:32.350Z,388.13
2018-04-22T08:48:32.329Z,382.50
2018-04-22T08:49:32.309Z,371.25
2018-04-22T08:50:32.286Z,371.25
2018-04-22T08:51:32.267Z,376.88
2018-04-22T08:52:32.253Z,376.88
2018-04-22T08:53:32.224Z,376.88
2018-04-22T08:54:32.202Z,371.25
2018-04-22T08:55:32.216Z,365.63
2018-04-22T08:56:32.170Z,393.75
2018-04-22T08:57:32.160Z,399.38
2018-04-22T08:58:32.157Z,405.00
2018-04-22T08:59:32.086Z,393.75
2018-04-22T09:00:32.066Z,393.75
2018-04-22T09:01:32.065Z,416.25
2018-04-22T09:02:32.028Z,427.50
2018-04-22T09:03:32.007Z,427.50
2018-04-22T09:04:31.978Z,433.13
2018-04-22T09:05:31.966Z,438.75
2018-04-22T09:06:32.032Z,438.75
2018-04-22T09:07:31.922Z,433.13
2018-04-22T09:08:31.909Z,427.50
2018-04-22T09:09:31.884Z,421.88
2018-04-22T09:10:31.928Z,421.88
2018-04-22T09:11:31.863Z,421.88
2018-04-22T09:12:31.822Z,410.63
2018-04-22T09:13:31.789Z,405.00
2018-04-22T09:14:31.826Z,399.38
2018-04-22T09:15:31.747Z,371.25
2018-04-22T09:16:31.735Z,410.63
2018-04-22T09:17:31.712Z,421.88
2018-04-22T09:18:31.698Z,427.50
2018-04-22T09:19:31.668Z,433.13
2018-04-22T09:20:31.707Z,438.75
2018-04-22T09:21:32.108Z,438.75
2018-04-22T09:22:31.594Z,438.75
2018-04-22T09:23:31.582Z,444.38
2018-04-22T09:24:31.579Z,450.00
2018-04-22T09:25:31.534Z,444.38
2018-04-22T09:26:31.532Z,444.38
2018-04-22T09:27:31.491Z,450.00
2018-04-22T09:28:31.470Z,461.25
2018-04-22T09:29:31.506Z,466.88
2018-04-22T09:30:31.439Z,466.88
2018-04-22T09:31:31.426Z,472.50
2018-04-22T09:32:31.397Z,478.13
2018-04-22T09:33:31.422Z,483.75
2018-04-22T09:34:31.387Z,489.38
2018-04-22T09:35:31.861Z,500.63
2018-04-22T09:36:32.843Z,506.25
2018-04-22T09:37:31.345Z,506.25
2018-04-22T09:38:31.307Z,511.88
2018-04-22T09:39:31.284Z,517.50
2018-04-22T09:40:31.273Z,523.13
2018-04-22T09:41:31.226Z,528.75
2018-04-22T09:42:31.223Z,540.00
2018-04-22T09:43:31.580Z,545.63
2018-04-22T09:44:31.142Z,556.88
2018-04-22T09:45:31.138Z,568.13
2018-04-22T09:46:31.113Z,585.00
2018-04-22T09:47:31.109Z,590.63
2018-04-22T09:48:31.074Z,601.88
2018-04-22T09:49:31.042Z,613.13
2018-04-22T09:50:31.030Z,635.63
2018-04-22T09:51:31.003Z,646.88
2018-04-22T09:52:30.986Z,663.75
2018-04-22T09:53:30.967Z,675.00
2018-04-22T09:54:30.935Z,691.88
2018-04-22T09:55:32.847Z,708.75
2018-04-22T09:56:30.901Z,731.25
2018-04-22T09:57:30.879Z,759.38
2018-04-22T09:58:30.854Z,781.88
2018-04-22T09:59:30.861Z,787.50
2018-04-22T10:00:30.838Z,810.00
2018-04-22T10:01:30.808Z,821.25
2018-04-22T10:02:30.784Z,815.63
2018-04-22T10:03:30.760Z,832.50
2018-04-22T10:04:30.786Z,838.13
2018-04-22T10:05:30.723Z,894.38
2018-04-22T10:06:30.763Z,922.50
2018-04-22T10:07:30.693Z,922.50
2018-04-22T10:08:30.668Z,911.25
2018-04-22T10:09:30.645Z,894.38
2018-04-22T10:10:30.706Z,871.88
2018-04-22T10:11:30.608Z,855.00
2018-04-22T10:12:30.660Z,838.13
2018-04-22T10:13:30.564Z,815.63
2018-04-22T10:14:30.550Z,821.25
2018-04-22T10:15:30.532Z,866.25
2018-04-22T10:16:30.521Z,871.88
2018-04-22T10:17:32.353Z,866.25
2018-04-22T10:18:30.477Z,855.00
2018-04-22T10:19:30.465Z,843.75
2018-04-22T10:20:30.441Z,838.13
2018-04-22T10:21:30.470Z,855.00
2018-04-22T10:22:30.405Z,860.63
2018-04-22T10:23:30.535Z,849.38
2018-04-22T10:24:31.427Z,860.63
2018-04-22T10:25:30.348Z,866.25
2018-04-22T10:26:30.333Z,877.50
2018-04-22T10:27:30.300Z,888.75
2018-04-22T10:28:30.355Z,894.38
2018-04-22T10:29:33.946Z,900.00
2018-04-22T10:30:30.261Z,916.88
2018-04-22T10:31:30.226Z,916.88
2018-04-22T10:32:30.215Z,916.88
2018-04-22T10:33:30.192Z,928.13
2018-04-22T10:34:30.177Z,945.00
2018-04-22T10:35:30.164Z,939.38
2018-04-22T10:36:30.146Z,928.13
2018-04-22T10:37:30.133Z,984.38
2018-04-22T10:38:30.108Z,961.88
2018-04-22T10:39:30.093Z,967.50
2018-04-22T10:40:30.069Z,967.50
2018-04-22T10:41:30.047Z,995.63
2018-04-22T10:42:30.025Z,973.13
2018-04-22T10:43:30.017Z,967.50
2018-04-22T10:44:30.001Z,961.88
2018-04-22T10:45:29.978Z,978.75
2018-04-22T10:46:29.951Z,1006.88
2018-04-22T10:47:29.939Z,1035.00
2018-04-22T10:48:29.931Z,1040.63
2018-04-22T10:49:29.898Z,1040.63
2018-04-22T10:50:29.899Z,1068.75
2018-04-22T10:51:30.860Z,1102.50
2018-04-22T10:52:29.880Z,1096.88
2018-04-22T10:53:29.829Z,1108.13
2018-04-22T10:54:29.818Z,1096.88
2018-04-22T10:55:29.815Z,1074.38
2018-04-22T10:56:29.780Z,1057.50
2018-04-22T10:57:29.776Z,1035.00
2018-04-22T10:58:29.744Z,1046.25
2018-04-22T10:59:29.731Z,1080.00
2018-04-22T11:00:29.825Z,1096.88
2018-04-22T11:01:29.732Z,1091.25
2018-04-22T11:02:29.779Z,1113.75
2018-04-22T11:03:29.773Z,1130.63
2018-04-22T11:04:30.216Z,1141.88
2018-04-22T11:05:31.504Z,1074.38
2018-04-22T11:06:29.839Z,1040.63
2018-04-22T11:07:30.107Z,990.00
2018-04-22T11:08:29.683Z,984.38
2018-04-22T11:09:29.708Z,1018.13
2018-04-22T11:10:29.593Z,1029.38
2018-04-22T11:11:30.668Z,1029.38
2018-04-22T11:12:31.623Z,1018.13
2018-04-22T11:13:29.824Z,1023.75
2018-04-22T11:14:31.562Z,1023.75
2018-04-22T11:15:29.551Z,995.63
2018-04-22T11:16:29.490Z,967.50
2018-04-22T11:17:29.595Z,950.63
2018-04-22T11:18:29.479Z,928.13
2018-04-22T11:19:29.439Z,1001.25
2018-04-22T11:20:29.517Z,1113.75
2018-04-22T11:21:29.482Z,1125.00
2018-04-22T11:22:29.460Z,1068.75
2018-04-22T11:23:31.020Z,1231.88
2018-04-22T11:24:29.351Z,1260.00
2018-04-22T11:25:29.369Z,1282.50
2018-04-22T11:26:29.348Z,1265.63
2018-04-22T11:27:29.418Z,1108.13
2018-04-22T11:28:29.427Z,1243.13
2018-04-22T11:29:29.289Z,1125.00
2018-04-22T11:30:32.138Z,1170.00
2018-04-22T11:31:29.261Z,1175.63
2018-04-22T11:32:29.219Z,1192.50
2018-04-22T11:33:29.252Z,1170.00
2018-04-22T11:34:29.236Z,1181.25
2018-04-22T11:35:29.265Z,1170.00
2018-04-22T11:36:32.146Z,1158.75
2018-04-22T11:37:29.406Z,1147.50
2018-04-22T11:38:29.196Z,1136.25
2018-04-22T11:39:29.226Z,1113.75
2018-04-22T11:40:29.176Z,1108.13
2018-04-22T11:41:29.179Z,1074.38
2018-04-22T11:42:29.888Z,1040.63
2018-04-22T11:43:29.321Z,1012.50
2018-04-22T11:44:29.029Z,961.88
2018-04-22T11:45:29.114Z,905.63
2018-04-22T11:46:29.127Z,911.25
2018-04-22T11:47:29.097Z,984.38
2018-04-22T11:48:29.008Z,1091.25
2018-04-22T11:49:29.040Z,1237.50
2018-04-22T11:50:28.968Z,1186.88
2018-04-22T11:51:29.273Z,1209.38
2018-04-22T11:52:31.166Z,1198.13
2018-04-22T11:53:29.203Z,1231.88
2018-04-22T11:54:29.578Z,1231.88
2018-04-22T11:55:29.027Z,1186.88
2018-04-22T11:56:28.917Z,1299.38
2018-04-22T11:57:29.150Z,1400.63
2018-04-22T11:58:29.150Z,1456.88
2018-04-22T11:59:30.662Z,1417.50
2018-04-22T12:00:28.903Z,1456.88
2018-04-22T12:01:28.842Z,1597.50
2018-04-22T12:02:28.840Z,1873.13
2018-04-22T12:03:30.514Z,3307.50
2018-04-22T12:04:29.085Z,4860.00
2018-04-22T12:05:28.733Z,4899.38
2018-04-22T12:06:28.800Z,4792.50
2018-04-22T12:07:28.740Z,1625.63
2018-04-22T12:08:29.106Z,1220.63
2018-04-22T12:09:28.819Z,1698.75
2018-04-22T12:10:28.643Z,5585.63
2018-04-22T12:11:28.637Z,2053.13
2018-04-22T12:12:28.843Z,4387.50
2018-04-22T12:13:39.553Z,6305.63
2018-04-22T12:14:29.074Z,6001.88
2018-04-22T12:15:30.773Z,5788.13
2018-04-22T12:16:28.575Z,4837.50
2018-04-22T12:17:28.594Z,5298.75
2018-04-22T12:18:31.636Z,4809.38
2018-04-22T12:19:28.603Z,4415.63
2018-04-22T12:20:31.367Z,4151.25
2018-04-22T12:21:30.529Z,3498.75
2018-04-22T12:22:28.698Z,2992.50
2018-04-22T12:23:29.468Z,2767.50
2018-04-22T12:24:28.738Z,2278.13
2018-04-22T12:25:30.571Z,2120.63
2018-04-22T12:26:29.264Z,1445.63
2018-04-22T12:27:29.103Z,1023.75
2018-04-22T12:28:28.509Z,855.00
2018-04-22T12:29:28.630Z,787.50
2018-04-22T12:30:28.475Z,658.13
2018-04-22T12:31:29.073Z,601.88
2018-04-22T12:32:28.581Z,545.63
2018-04-22T12:33:28.370Z,478.13
2018-04-22T12:34:28.751Z,433.13
2018-04-22T12:35:28.612Z,410.63
2018-04-22T12:36:28.435Z,388.13
2018-04-22T12:37:28.392Z,365.63
2018-04-22T12:38:28.272Z,360.00
2018-04-22T12:39:28.366Z,365.63
2018-04-22T12:40:28.286Z,382.50
2018-04-22T12:41:28.262Z,399.38
2018-04-22T12:42:28.299Z,421.88
2018-04-22T12:43:30.115Z,427.50